Iruñea, Spain

08:06 AM CEST 2017 martxoa ren 28 an (GMT +0200)
Pamplona | | Change Station

Elev 1506 ft 42.77 °N, 1.63 °W | Updated 36 minutes ago

Scattered Clouds
Dispertsaturik hodeiak
43 °F
Feels Like 43 °F
N
1
Haizea Aldagarria Haizea from EIE

Gaur
High -- | Low -- °F
--% Chance of Precip.
Yesterday
High -- | Low -- °F
Precip. -- in
Presioa 30.27 in
Ikusgaitasuna 6.2 Miliak
Clouds Dispertsaturik hodeiak 3500 ft
Ihintzaren maila 41 °F
Afoinua 93%
Rainfall 0.00 in
Snow Depth Not available.
7:55 AM 8:28 PM
New, 0% visible
METAR LEPP 280530Z 06001KT 9999 SCT035 06/05 Q1025
Presioa 30.27 in
Ikusgaitasuna 6.2 Miliak
Clouds Dispertsaturik hodeiak 3500 ft
Ihintzaren maila 41 °F
Afoinua 93%
Rainfall 0.00 in
Snow Depth Not available.
7:55 AM 8:28 PM
New, 0% visible
METAR LEPP 280530Z 06001KT 9999 SCT035 06/05 Q1025

Get Severe Weather Alerts

Thanks for signing up!

Be on the lookout for a verification email in your inbox.

You'll start receiving the daily forecast at 8 AM.

×

10-Day Weather Forecast

×

Almanac

Astronomy

Mar. 28, 2017 Rise Set
Actual Time
Civil Twilight
Nautical Twilight
Astronomical Twilight
Moon
Length Of Visible Light
Length of Day
Tomorrow will be .
, % of the Moon is Illuminated

Today's Extremes

Country Highs Country Lows

Community

WunderPhotos

Upload Photos

1,962,540 photos uploaded!

WunderBlog® & News

Nearby

Air Quality

  Air Quality AQ Index Pollutant
Not available.

Snow Depth

Station Depth Elevation

Earthquake Activity

City Distance Mag. Time & Date
Minimum magnitude displayed is 2.5.

Earthquake Activity

City Distance Mag. Time & Date
Minimum magnitude displayed is 2.5.

Coastal Water Temperatures

Lekua Tenperatura

Stations

Nearby Weather Stations

Station Location Temp Izozki haizeak Ihintzaren maila Afoinua Haizea Precip. Elev Eguneratuta Type